ULT YCBG-UNKW
Flight info
| Callsign | ULT |
|---|---|
| Flight time | N/A |
| Altitude | 5500 |
| Route | YCBG DCT MORN DCT YCBG |
| Aircraft | AS50/M-SDE3FGHIRWY/H |
Departure
| Time | 2026-04-14 05:16 |
|---|---|
| Airport | Cambridge Aerodrome (YCBG) |
Arrival
| Time | N/A |
|---|---|
| Airport | UNKW |
| Time | Latitude | Longitude | Altitude | Speed | Heading |
|---|---|---|---|---|---|
| 2026-04-14 05:13 | -42.82872 | 147.47684 | 36 ft | 0 kts | 195° |
| 2026-04-14 05:13 | -42.82872 | 147.47686 | 50 ft | 6 kts | 169° |
| 2026-04-14 05:13 | -42.82871 | 147.47715 | 36 ft | 0 kts | 113° |
| 2026-04-14 05:15 | -42.82872 | 147.47716 | 38 ft | 4 kts | 105° |
| 2026-04-14 05:15 | -42.82896 | 147.47963 | 87 ft | 44 kts | 103° |
| 2026-04-14 05:16 | -42.82671 | 147.47894 | 146 ft | 70 kts | 305° |
| 2026-04-14 05:16 | -42.82313 | 147.47276 | 389 ft | 89 kts | 276° |
| 2026-04-14 05:16 | -42.82508 | 147.46491 | 782 ft | 90 kts | 243° |
| 2026-04-14 05:16 | -42.82834 | 147.45733 | 1090 ft | 96 kts | 237° |
| 2026-04-14 05:17 | -42.83269 | 147.44905 | 1097 ft | 120 kts | 234° |
| 2026-04-14 05:17 | -42.83824 | 147.43971 | 1092 ft | 130 kts | 231° |
| 2026-04-14 05:17 | -42.84432 | 147.43089 | 1253 ft | 127 kts | 226° |
| 2026-04-14 05:17 | -42.85096 | 147.42270 | 1303 ft | 135 kts | 223° |
| 2026-04-14 05:18 | -42.85763 | 147.41430 | 979 ft | 112 kts | 249° |
| 2026-04-14 05:18 | -42.85857 | 147.40622 | 623 ft | 69 kts | 278° |
| 2026-04-14 05:18 | -42.85838 | 147.40165 | 365 ft | 26 kts | 292° |
| 2026-04-14 05:18 | -42.85805 | 147.40095 | 313 ft | 1 kts | 319° |
| 2026-04-14 05:19 | -42.85805 | 147.40094 | 310 ft | 0 kts | 324° |
| 2026-04-14 05:21 | -42.85796 | 147.40107 | 330 ft | 0 kts | 294° |
| 2026-04-14 05:21 | -42.85791 | 147.40101 | 395 ft | 2 kts | 238° |
| 2026-04-14 05:22 | -42.85801 | 147.40061 | 414 ft | 8 kts | 229° |
| 2026-04-14 05:22 | -42.85818 | 147.40020 | 412 ft | 5 kts | 200° |
| 2026-04-14 05:22 | -42.85830 | 147.40007 | 391 ft | 1 kts | 152° |
| 2026-04-14 05:22 | -42.85801 | 147.40162 | 444 ft | 10 kts | 214° |
| 2026-04-14 05:23 | -42.85814 | 147.40138 | 361 ft | 2 kts | 262° |
| 2026-04-14 05:23 | -42.85805 | 147.40119 | 515 ft | 6 kts | 240° |
| 2026-04-14 05:23 | -42.85833 | 147.40006 | 539 ft | 9 kts | 219° |
| 2026-04-14 05:23 | -42.85833 | 147.40000 | 412 ft | 1 kts | 176° |
| 2026-04-14 05:24 | -42.85818 | 147.40110 | 431 ft | 33 kts | 142° |
| 2026-04-14 05:24 | -42.85808 | 147.40164 | 384 ft | 7 kts | 255° |
| 2026-04-14 05:24 | -42.85807 | 147.40093 | 310 ft | 0 kts | 337° |
| 2026-04-14 05:27 | -42.85804 | 147.40091 | 315 ft | 3 kts | 338° |
| 2026-04-14 05:27 | -42.85807 | 147.40129 | 365 ft | 2 kts | 263° |
| 2026-04-14 05:27 | -42.85813 | 147.40087 | 394 ft | 9 kts | 261° |
| 2026-04-14 05:28 | -42.85822 | 147.40028 | 408 ft | 6 kts | 178° |
| 2026-04-14 05:28 | -42.85815 | 147.40015 | 386 ft | 4 kts | 135° |
| 2026-04-14 05:28 | -42.85802 | 147.40154 | 381 ft | 12 kts | 230° |
| 2026-04-14 05:28 | -42.85816 | 147.40151 | 362 ft | 4 kts | 274° |
| 2026-04-14 05:29 | -42.85814 | 147.40074 | 407 ft | 15 kts | 240° |
| 2026-04-14 05:29 | -42.85821 | 147.40010 | 426 ft | 1 kts | 172° |
| 2026-04-14 05:29 | -42.85834 | 147.40015 | 403 ft | 3 kts | 116° |
| 2026-04-14 05:29 | -42.85817 | 147.40180 | 391 ft | 8 kts | 255° |
| 2026-04-14 05:30 | -42.85812 | 147.40135 | 313 ft | 1 kts | 298° |
| 2026-04-14 05:30 | -42.85812 | 147.40133 | 311 ft | 0 kts | 299° |
| 2026-04-14 05:31 | -42.85810 | 147.40153 | 355 ft | 3 kts | 269° |
| 2026-04-14 05:31 | -42.85821 | 147.40049 | 396 ft | 6 kts | 174° |
| 2026-04-14 05:31 | -42.85816 | 147.40012 | 381 ft | 3 kts | 166° |
| 2026-04-14 05:31 | -42.85800 | 147.40069 | 349 ft | 16 kts | 62° |
| 2026-04-14 05:32 | -42.85801 | 147.40101 | 317 ft | 2 kts | 290° |
| 2026-04-14 05:32 | -42.85800 | 147.40097 | 307 ft | 0 kts | 287° |
| 2026-04-14 05:41 | -42.85806 | 147.40100 | 328 ft | 4 kts | 292° |
| 2026-04-14 05:41 | -42.85821 | 147.40103 | 355 ft | 2 kts | 256° |
| 2026-04-14 05:41 | -42.85824 | 147.40114 | 490 ft | 10 kts | 119° |
| 2026-04-14 05:41 | -42.85897 | 147.40133 | 531 ft | 11 kts | 267° |
| 2026-04-14 05:42 | -42.85861 | 147.40050 | 521 ft | 7 kts | 265° |
| 2026-04-14 05:42 | -42.85843 | 147.40023 | 418 ft | 3 kts | 207° |
| 2026-04-14 05:42 | -42.85790 | 147.40099 | 401 ft | 35 kts | 76° |
| 2026-04-14 05:42 | -42.85824 | 147.40133 | 386 ft | 19 kts | 249° |
| 2026-04-14 05:43 | -42.85834 | 147.40024 | 430 ft | 5 kts | 264° |
| 2026-04-14 05:43 | -42.85836 | 147.39995 | 438 ft | 5 kts | 46° |
| 2026-04-14 05:43 | -42.85786 | 147.40125 | 412 ft | 35 kts | 127° |
| 2026-04-14 05:43 | -42.85810 | 147.40107 | 317 ft | 3 kts | 287° |
| 2026-04-14 05:44 | -42.85803 | 147.40092 | 311 ft | 0 kts | 279° |
| 2026-04-14 05:47 | -42.85809 | 147.40098 | 321 ft | 3 kts | 278° |
| 2026-04-14 05:48 | -42.85787 | 147.39925 | 466 ft | 47 kts | 278° |
| 2026-04-14 05:48 | -42.85743 | 147.39205 | 464 ft | 99 kts | 265° |
| 2026-04-14 05:48 | -42.86004 | 147.38221 | 413 ft | 123 kts | 239° |
| 2026-04-14 05:48 | -42.86486 | 147.37261 | 507 ft | 123 kts | 234° |
| 2026-04-14 05:49 | -42.87066 | 147.36339 | 448 ft | 131 kts | 228° |
| 2026-04-14 05:49 | -42.87556 | 147.35335 | 407 ft | 131 kts | 268° |
| 2026-04-14 05:49 | -42.86952 | 147.34490 | 358 ft | 137 kts | 336° |
| 2026-04-14 05:49 | -42.86069 | 147.34060 | 424 ft | 132 kts | 334° |
| 2026-04-14 05:50 | -42.85245 | 147.33562 | 531 ft | 127 kts | 329° |
| 2026-04-14 05:50 | -42.84416 | 147.33293 | 595 ft | 136 kts | 21° |
| 2026-04-14 05:50 | -42.84047 | 147.34427 | 593 ft | 138 kts | 110° |
| 2026-04-14 05:50 | -42.84599 | 147.35473 | 714 ft | 135 kts | 129° |
| 2026-04-14 05:51 | -42.85137 | 147.36512 | 848 ft | 134 kts | 124° |
| 2026-04-14 05:51 | -42.85584 | 147.37596 | 996 ft | 133 kts | 114° |
| 2026-04-14 05:51 | -42.85750 | 147.38824 | 813 ft | 126 kts | 91° |
| 2026-04-14 05:51 | -42.85719 | 147.39882 | 596 ft | 88 kts | 96° |
| 2026-04-14 05:52 | -42.85817 | 147.40204 | 349 ft | 18 kts | 272° |
| 2026-04-14 05:52 | -42.85807 | 147.40110 | 318 ft | 4 kts | 282° |
| 2026-04-14 05:52 | -42.85802 | 147.40093 | 309 ft | 0 kts | 333° |
| 2026-04-14 05:53 | -42.85793 | 147.40083 | 319 ft | 4 kts | 36° |
| 2026-04-14 05:53 | -42.85800 | 147.40114 | 315 ft | 1 kts | 271° |
| 2026-04-14 05:54 | -42.85827 | 147.39897 | 502 ft | 67 kts | 254° |
| 2026-04-14 05:54 | -42.85310 | 147.39378 | 699 ft | 126 kts | 348° |
| 2026-04-14 05:54 | -42.84440 | 147.39854 | 1023 ft | 139 kts | 31° |
| 2026-04-14 05:54 | -42.83689 | 147.40769 | 1259 ft | 153 kts | 41° |
| 2026-04-14 05:55 | -42.83485 | 147.42225 | 1137 ft | 175 kts | 103° |
| 2026-04-14 05:55 | -42.83952 | 147.43850 | 922 ft | 187 kts | 112° |
| 2026-04-14 05:55 | -42.84427 | 147.45462 | 1006 ft | 179 kts | 110° |
| 2026-04-14 05:55 | -42.84781 | 147.47061 | 1133 ft | 175 kts | 102° |
| 2026-04-14 05:56 | -42.84980 | 147.48694 | 1198 ft | 176 kts | 95° |
| 2026-04-14 05:56 | -42.84966 | 147.50416 | 1097 ft | 182 kts | 75° |
| 2026-04-14 05:56 | -42.84103 | 147.51528 | 882 ft | 182 kts | 1° |
| 2026-04-14 05:56 | -42.83138 | 147.50662 | 765 ft | 170 kts | 289° |
| 2026-04-14 05:57 | -42.83006 | 147.49105 | 654 ft | 150 kts | 273° |
| 2026-04-14 05:57 | -42.82915 | 147.47914 | 796 ft | 70 kts | 294° |
| 2026-04-14 05:57 | -42.82920 | 147.47771 | 470 ft | 14 kts | 126° |
| 2026-04-14 05:57 | -42.82865 | 147.47885 | 68 ft | 18 kts | 278° |
| 2026-04-14 05:58 | -42.82863 | 147.47708 | 59 ft | 12 kts | 210° |
| 2026-04-14 05:58 | -42.82873 | 147.47689 | 34 ft | 0 kts | 204° |